createdAt,value
2017-07-16T00:00:36.987Z,97.81
2017-07-16T00:01:36.971Z,97.81
2017-07-16T00:02:36.646Z,98.1
2017-07-16T00:03:36.636Z,97.62
2017-07-16T00:04:36.937Z,98
2017-07-16T00:05:36.597Z,98.1
2017-07-16T00:06:36.577Z,98.19
2017-07-16T00:07:36.894Z,98.29
2017-07-16T00:08:36.867Z,98.49
2017-07-16T00:09:36.535Z,97.76
2017-07-16T00:10:36.827Z,97.91
2017-07-16T00:11:36.510Z,97.86
2017-07-16T00:12:36.810Z,97.96
2017-07-16T00:13:36.475Z,97.96
2017-07-16T00:14:36.777Z,97.96
2017-07-16T00:15:36.448Z,97.76
2017-07-16T00:16:36.761Z,97.96
2017-07-16T00:17:36.737Z,97.86
2017-07-16T00:18:36.417Z,97.47
2017-07-16T00:19:36.710Z,97.96
2017-07-16T00:20:36.690Z,97.57
2017-07-16T00:21:36.686Z,97.67
2017-07-16T00:22:36.348Z,97.96
2017-07-16T00:23:36.640Z,97.96
2017-07-16T00:24:36.320Z,97.67
2017-07-16T00:25:36.436Z,97.76
2017-07-16T00:26:36.603Z,97.67
2017-07-16T00:27:36.603Z,98.14
2017-07-16T00:28:36.257Z,97.96
2017-07-16T00:29:36.566Z,97.67
2017-07-16T00:30:36.538Z,97.86
2017-07-16T00:31:36.541Z,98.54
2017-07-16T00:32:36.189Z,98.24
2017-07-16T00:33:36.194Z,98.54
2017-07-16T00:34:36.476Z,98.34
2017-07-16T00:35:36.148Z,98.44
2017-07-16T00:36:36.137Z,98.44
2017-07-16T00:37:36.147Z,97.57
2017-07-16T00:38:36.107Z,98.54
2017-07-16T00:39:36.494Z,98.54
2017-07-16T00:40:36.398Z,98.24
2017-07-16T00:41:36.426Z,98.44
2017-07-16T00:42:36.358Z,98.54
2017-07-16T00:43:36.396Z,98.44
2017-07-16T00:44:36.323Z,98.1
2017-07-16T00:45:36.356Z,98.44
2017-07-16T00:46:35.986Z,98.54
2017-07-16T00:47:36.317Z,98.63
2017-07-16T00:48:35.967Z,98.82
2017-07-16T00:49:36.278Z,99.01
2017-07-16T00:50:36.273Z,98.82
2017-07-16T00:51:36.237Z,98.54
2017-07-16T00:52:36.206Z,98.44
2017-07-16T00:53:36.187Z,98.44
2017-07-16T00:54:36.182Z,98.34
2017-07-16T00:55:35.877Z,98.44
2017-07-16T00:56:36.209Z,98.54
2017-07-16T00:57:36.166Z,98.54
2017-07-16T00:58:36.119Z,98.34
2017-07-16T00:59:36.149Z,98.34
2017-07-16T01:00:36.107Z,98.44
2017-07-16T01:01:36.066Z,98.82
2017-07-16T01:02:35.745Z,98.72
2017-07-16T01:03:36.041Z,98.82
2017-07-16T01:04:36.027Z,98.82
2017-07-16T01:05:36.017Z,98.63
2017-07-16T01:06:36.048Z,98.63
2017-07-16T01:07:36.001Z,99.49
2017-07-16T01:08:35.655Z,99.44
2017-07-16T01:09:35.957Z,99.16
2017-07-16T01:10:35.950Z,99.06
2017-07-16T01:11:35.921Z,98.87
2017-07-16T01:12:35.898Z,98.63
2017-07-16T01:13:35.908Z,98.82
2017-07-16T01:14:35.887Z,98.92
2017-07-16T01:15:35.554Z,99.49
2017-07-16T01:16:35.898Z,98.82
2017-07-16T01:17:35.836Z,98.63
2017-07-16T01:18:35.521Z,98.72
2017-07-16T01:19:35.809Z,98.63
2017-07-16T01:20:35.789Z,99.01
2017-07-16T01:21:35.767Z,98.92
2017-07-16T01:22:35.761Z,98.63
2017-07-16T01:23:35.728Z,98.54
2017-07-16T01:24:35.417Z,98.82
2017-07-16T01:25:35.718Z,98.92
2017-07-16T01:26:35.697Z,98.72
2017-07-16T01:27:35.684Z,99.11
2017-07-16T01:28:35.667Z,98.92
2017-07-16T01:29:35.667Z,99.21
2017-07-16T01:30:35.636Z,99.73
2017-07-16T01:31:35.618Z,99.59
2017-07-16T01:32:35.606Z,99.59
2017-07-16T01:33:35.594Z,99.73
2017-07-16T01:34:35.577Z,99.73
2017-07-16T01:35:35.558Z,99.99
2017-07-16T01:36:35.563Z,99.99
2017-07-16T01:37:35.218Z,99.93
2017-07-16T01:38:35.516Z,99.99
2017-07-16T01:39:35.498Z,99.99
2017-07-16T01:40:35.498Z,99.99
2017-07-16T01:41:35.156Z,99.99
2017-07-16T01:42:35.458Z,99.83
2017-07-16T01:43:35.125Z,99.99
2017-07-16T01:44:35.115Z,99.99
2017-07-16T01:45:35.419Z,99.99
2017-07-16T01:46:35.397Z,99.99
2017-07-16T01:47:35.066Z,99.99
2017-07-16T01:48:35.053Z,99.99
2017-07-16T01:49:35.347Z,99.99
2017-07-16T01:50:35.032Z,99.99
2017-07-16T01:51:35.320Z,99.99
2017-07-16T01:52:35.307Z,99.93
2017-07-16T01:53:35.293Z,99.99
2017-07-16T01:54:35.279Z,99.99
2017-07-16T01:55:35.254Z,99.99
2017-07-16T01:56:35.248Z,99.99
2017-07-16T01:57:35.225Z,99.99
2017-07-16T01:58:34.917Z,99.99
2017-07-16T01:59:35.199Z,99.99
2017-07-16T02:00:35.198Z,99.99
2017-07-16T02:01:35.187Z,99.99
2017-07-16T02:02:35.161Z,99.99
2017-07-16T02:03:35.135Z,99.99
2017-07-16T02:04:34.819Z,99.99
2017-07-16T02:05:35.159Z,99.99
2017-07-16T02:06:34.778Z,99.99
2017-07-16T02:07:35.078Z,99.99
2017-07-16T02:08:34.758Z,99.99
2017-07-16T02:09:35.058Z,99.99
2017-07-16T02:10:35.033Z,99.99
2017-07-16T02:11:34.707Z,99.99
2017-07-16T02:12:35.008Z,99.99
2017-07-16T02:13:34.987Z,99.99
2017-07-16T02:14:34.660Z,99.99
2017-07-16T02:15:34.645Z,99.99
2017-07-16T02:16:34.952Z,99.99
2017-07-16T02:17:34.932Z,99.99
2017-07-16T02:18:34.912Z,99.99
2017-07-16T02:19:34.888Z,99.99
2017-07-16T02:20:34.577Z,99.99
2017-07-16T02:21:34.860Z,99.99
2017-07-16T02:22:34.539Z,99.99
2017-07-16T02:23:34.830Z,99.99
2017-07-16T02:24:34.829Z,99.99
2017-07-16T02:25:34.508Z,99.99
2017-07-16T02:26:34.790Z,99.99
2017-07-16T02:27:34.478Z,99.99
2017-07-16T02:28:34.558Z,99.99
2017-07-16T02:29:34.430Z,99.99
2017-07-16T02:30:34.767Z,99.99
2017-07-16T02:31:34.727Z,99.99
2017-07-16T02:32:34.699Z,99.99
2017-07-16T02:33:34.371Z,99.99
2017-07-16T02:34:34.681Z,99.99
2017-07-16T02:35:34.651Z,99.99
2017-07-16T02:36:34.672Z,99.99
2017-07-16T02:37:34.614Z,99.99
2017-07-16T02:38:34.608Z,99.99
2017-07-16T02:39:34.633Z,99.99
2017-07-16T02:40:34.368Z,99.99
2017-07-16T02:41:34.563Z,99.99
2017-07-16T02:42:34.557Z,99.99
2017-07-16T02:43:34.227Z,99.99
2017-07-16T02:44:34.518Z,99.99
2017-07-16T02:45:34.548Z,99.99
2017-07-16T02:46:34.488Z,99.54
2017-07-16T02:47:34.159Z,99.44
2017-07-16T02:48:34.475Z,99.44
2017-07-16T02:49:34.499Z,99.73
2017-07-16T02:50:34.163Z,99.35
2017-07-16T02:51:34.464Z,99.64
2017-07-16T02:52:34.443Z,99.44
2017-07-16T02:53:34.071Z,99.26
2017-07-16T02:54:34.366Z,99.64
2017-07-16T02:55:34.399Z,99.26
2017-07-16T02:56:34.332Z,99.64
2017-07-16T02:57:34.329Z,99.54
2017-07-16T02:58:34.301Z,99.26
2017-07-16T02:59:34.286Z,98.96
2017-07-16T03:00:34.279Z,98.96
2017-07-16T03:01:34.305Z,98.54
2017-07-16T03:02:34.238Z,98.82
2017-07-16T03:03:33.919Z,98.49
2017-07-16T03:04:33.897Z,99.21
2017-07-16T03:05:34.248Z,99.3
2017-07-16T03:06:33.868Z,98.87
2017-07-16T03:07:34.169Z,98.96
2017-07-16T03:08:33.840Z,99.54
2017-07-16T03:09:34.139Z,99.44
2017-07-16T03:10:34.115Z,99.64
2017-07-16T03:11:34.110Z,99.69
2017-07-16T03:12:33.788Z,98.92
2017-07-16T03:13:33.768Z,99.3
2017-07-16T03:14:34.071Z,99.49
2017-07-16T03:15:33.743Z,99.49
2017-07-16T03:16:33.724Z,99.64
2017-07-16T03:17:34.063Z,99.44
2017-07-16T03:18:34.001Z,99.16
2017-07-16T03:19:34.028Z,99.64
2017-07-16T03:20:33.662Z,99.21
2017-07-16T03:21:33.972Z,99.21
2017-07-16T03:22:33.937Z,99.3
2017-07-16T03:23:33.918Z,99.01
2017-07-16T03:24:33.599Z,99.21
2017-07-16T03:25:33.918Z,99.49
2017-07-16T03:26:33.878Z,99.54
2017-07-16T03:27:33.561Z,99.73
2017-07-16T03:28:33.849Z,99.49
2017-07-16T03:29:33.830Z,99.49
2017-07-16T03:30:33.829Z,99.54
2017-07-16T03:31:33.804Z,99.69
2017-07-16T03:32:33.787Z,99.73
2017-07-16T03:33:33.768Z,99.99
2017-07-16T03:34:33.758Z,99.73
2017-07-16T03:35:33.740Z,99.83
2017-07-16T03:36:33.428Z,99.93
2017-07-16T03:37:33.715Z,99.99
2017-07-16T03:38:33.707Z,99.99
2017-07-16T03:39:33.690Z,99.99
2017-07-16T03:40:33.669Z,99.99
2017-07-16T03:41:33.647Z,99.99
2017-07-16T03:42:33.643Z,99.99
2017-07-16T03:43:33.623Z,99.99
2017-07-16T03:44:33.613Z,99.59
2017-07-16T03:45:33.600Z,99.69
2017-07-16T03:46:33.589Z,99.59
2017-07-16T03:47:33.579Z,99.4
2017-07-16T03:48:33.240Z,99.59
2017-07-16T03:49:33.539Z,99.3
2017-07-16T03:50:33.519Z,99.01
2017-07-16T03:51:33.502Z,99.01
2017-07-16T03:52:33.500Z,98.82
2017-07-16T03:53:33.158Z,99.01
2017-07-16T03:54:33.151Z,99.01
2017-07-16T03:55:33.130Z,99.11
2017-07-16T03:56:33.423Z,98.54
2017-07-16T03:57:33.412Z,98.72
2017-07-16T03:58:33.080Z,99.3
2017-07-16T03:59:33.066Z,99.11
2017-07-16T04:00:33.420Z,99.78
2017-07-16T04:01:33.362Z,99.4
2017-07-16T04:02:33.339Z,99.21
2017-07-16T04:03:33.009Z,99.59
2017-07-16T04:04:33.001Z,99.98
2017-07-16T04:05:33.302Z,99.98
2017-07-16T04:06:32.983Z,99.88
2017-07-16T04:07:33.270Z,99.88
2017-07-16T04:08:33.248Z,99.99
2017-07-16T04:09:33.240Z,99.49
2017-07-16T04:10:33.240Z,99.59
2017-07-16T04:11:33.210Z,99.99
2017-07-16T04:12:33.199Z,99.99
2017-07-16T04:13:33.180Z,99.99
2017-07-16T04:14:33.175Z,99.99
2017-07-16T04:15:33.145Z,99.99
2017-07-16T04:16:33.125Z,99.99
2017-07-16T04:17:33.111Z,99.99
2017-07-16T04:18:33.102Z,99.99
2017-07-16T04:19:32.779Z,99.99
2017-07-16T04:20:32.759Z,99.99
2017-07-16T04:21:32.743Z,99.99
2017-07-16T04:22:32.733Z,99.99
2017-07-16T04:23:32.719Z,99.99
2017-07-16T04:24:32.698Z,99.99
2017-07-16T04:25:32.690Z,99.99
2017-07-16T04:26:32.672Z,99.99
2017-07-16T04:27:32.679Z,99.99
2017-07-16T04:28:32.955Z,99.99
2017-07-16T04:29:32.631Z,99.99
2017-07-16T04:30:32.917Z,99.99
2017-07-16T04:31:32.980Z,99.99
2017-07-16T04:32:32.580Z,99.99
2017-07-16T04:33:32.979Z,99.99
2017-07-16T04:34:32.862Z,99.99
2017-07-16T04:35:32.586Z,99.99
2017-07-16T04:36:32.849Z,99.99
2017-07-16T04:37:32.506Z,99.99
2017-07-16T04:38:32.828Z,99.99
2017-07-16T04:39:32.488Z,99.99
2017-07-16T04:40:32.462Z,99.99
2017-07-16T04:41:32.451Z,99.99
2017-07-16T04:42:32.751Z,99.99
2017-07-16T04:43:32.738Z,99.99
2017-07-16T04:44:32.397Z,99.99
2017-07-16T04:45:32.700Z,99.99
2017-07-16T04:46:32.690Z,99.99
2017-07-16T04:47:32.668Z,99.99
2017-07-16T04:48:32.658Z,99.99
2017-07-16T04:49:32.653Z,99.99
2017-07-16T04:50:32.616Z,99.99
2017-07-16T04:51:32.619Z,99.99
2017-07-16T04:52:32.696Z,99.99
2017-07-16T04:53:32.594Z,99.99
2017-07-16T04:54:32.578Z,99.99
2017-07-16T04:55:32.238Z,99.99
2017-07-16T04:56:32.578Z,99.99
2017-07-16T04:57:32.207Z,99.99
2017-07-16T04:58:32.582Z,99.99
2017-07-16T04:59:32.487Z,99.99
2017-07-16T05:00:32.476Z,99.99
2017-07-16T05:01:32.457Z,99.99
2017-07-16T05:02:32.138Z,99.99
2017-07-16T05:03:32.431Z,99.99
2017-07-16T05:04:32.420Z,99.99
2017-07-16T05:05:32.084Z,99.99
2017-07-16T05:06:32.088Z,99.99
2017-07-16T05:07:32.373Z,99.99
2017-07-16T05:08:32.374Z,99.99
2017-07-16T05:09:32.030Z,99.99
2017-07-16T05:10:32.346Z,99.99
2017-07-16T05:11:32.308Z,99.99
2017-07-16T05:12:32.304Z,99.99
2017-07-16T05:13:31.971Z,99.99
2017-07-16T05:14:31.955Z,99.99
2017-07-16T05:15:31.940Z,99.99
2017-07-16T05:16:31.921Z,99.99
2017-07-16T05:17:31.911Z,99.99
2017-07-16T05:18:31.897Z,99.99
2017-07-16T05:19:31.882Z,99.99
2017-07-16T05:20:32.179Z,99.99
2017-07-16T05:21:32.173Z,99.99
2017-07-16T05:22:32.148Z,99.99
2017-07-16T05:23:32.131Z,99.99
2017-07-16T05:24:32.123Z,99.99
2017-07-16T05:25:31.797Z,99.99
2017-07-16T05:26:32.092Z,99.99
2017-07-16T05:27:32.084Z,99.99
2017-07-16T05:28:32.062Z,99.99
2017-07-16T05:29:31.728Z,99.99
2017-07-16T05:30:31.720Z,99.99
2017-07-16T05:31:31.702Z,99.99
2017-07-16T05:32:32.016Z,99.99
2017-07-16T05:33:31.982Z,99.99
2017-07-16T05:34:31.661Z,99.99
2017-07-16T05:35:31.641Z,99.99
2017-07-16T05:36:31.953Z,99.99
2017-07-16T05:37:31.618Z,99.99
2017-07-16T05:38:31.906Z,99.99
2017-07-16T05:39:31.591Z,99.99
2017-07-16T05:40:31.879Z,99.99
2017-07-16T05:41:31.553Z,99.99
2017-07-16T05:42:31.865Z,99.99
2017-07-16T05:43:31.842Z,99.99
2017-07-16T05:44:31.821Z,99.99
2017-07-16T05:45:31.500Z,99.99
2017-07-16T05:46:31.479Z,99.99
2017-07-16T05:47:31.463Z,99.99
2017-07-16T05:48:31.450Z,99.99
2017-07-16T05:49:31.445Z,99.99
2017-07-16T05:50:31.421Z,99.99
2017-07-16T05:51:31.719Z,99.99
2017-07-16T05:52:31.706Z,99.99
2017-07-16T05:53:31.701Z,99.99
2017-07-16T05:54:31.684Z,99.99
2017-07-16T05:55:31.681Z,99.99
2017-07-16T05:56:31.329Z,99.99
2017-07-16T05:57:31.641Z,99.99
2017-07-16T05:58:31.618Z,99.99
2017-07-16T05:59:31.289Z,99.99
2017-07-16T06:00:31.579Z,99.99
2017-07-16T06:01:31.581Z,99.99
2017-07-16T06:02:31.568Z,99.99
2017-07-16T06:03:31.548Z,99.99
2017-07-16T06:04:31.539Z,99.99
2017-07-16T06:05:31.515Z,99.99
2017-07-16T06:06:31.505Z,99.99
2017-07-16T06:07:31.479Z,99.99
2017-07-16T06:08:31.159Z,99.99
2017-07-16T06:09:31.460Z,99.99
2017-07-16T06:10:31.443Z,99.99
2017-07-16T06:11:31.417Z,99.99
2017-07-16T06:12:31.410Z,99.99
2017-07-16T06:13:31.402Z,99.99
2017-07-16T06:14:31.070Z,99.99
2017-07-16T06:15:31.377Z,99.99
2017-07-16T06:16:31.356Z,99.99
2017-07-16T06:17:31.349Z,99.99
2017-07-16T06:18:31.329Z,99.99
2017-07-16T06:19:31.316Z,99.99
2017-07-16T06:20:31.300Z,99.99
2017-07-16T06:21:31.286Z,99.99
2017-07-16T06:22:31.258Z,99.99
2017-07-16T06:23:31.250Z,99.99
2017-07-16T06:24:31.250Z,99.99
2017-07-16T06:25:31.223Z,99.99
2017-07-16T06:26:31.220Z,99.99
2017-07-16T06:27:30.878Z,99.99
2017-07-16T06:28:31.191Z,99.99
2017-07-16T06:29:31.156Z,99.99
2017-07-16T06:30:31.159Z,99.99
2017-07-16T06:31:31.129Z,99.99
2017-07-16T06:32:31.128Z,99.99
2017-07-16T06:33:31.109Z,99.99
2017-07-16T06:34:31.098Z,99.99
2017-07-16T06:35:30.755Z,99.99
2017-07-16T06:36:31.175Z,99.99
2017-07-16T06:37:31.037Z,99.99
2017-07-16T06:38:31.032Z,99.99
2017-07-16T06:39:30.709Z,99.99
2017-07-16T06:40:31.006Z,99.99
2017-07-16T06:41:30.682Z,99.99
2017-07-16T06:42:30.970Z,99.99
2017-07-16T06:43:30.970Z,99.99
2017-07-16T06:44:30.998Z,99.99
2017-07-16T06:45:30.938Z,99.99
2017-07-16T06:46:30.960Z,99.99
2017-07-16T06:47:30.907Z,99.99
2017-07-16T06:48:30.887Z,99.99
2017-07-16T06:49:30.860Z,99.99
2017-07-16T06:50:30.858Z,99.99
2017-07-16T06:51:30.833Z,99.99
2017-07-16T06:52:30.508Z,99.99
2017-07-16T06:53:30.815Z,99.99
2017-07-16T06:54:30.486Z,99.99
2017-07-16T06:55:30.783Z,99.99
2017-07-16T06:56:30.778Z,99.99
2017-07-16T06:57:30.751Z,99.99
2017-07-16T06:58:30.738Z,99.99
2017-07-16T06:59:30.718Z,99.99
2017-07-16T07:00:30.718Z,99.99
2017-07-16T07:01:30.721Z,99.99
2017-07-16T07:02:30.689Z,99.99
2017-07-16T07:03:30.349Z,99.99
2017-07-16T07:04:30.649Z,99.99
2017-07-16T07:05:30.321Z,99.99
2017-07-16T07:06:30.304Z,99.99
2017-07-16T07:07:30.294Z,99.99
2017-07-16T07:08:30.593Z,99.99
2017-07-16T07:09:30.256Z,99.99
2017-07-16T07:10:30.250Z,99.99
2017-07-16T07:11:30.551Z,99.99
2017-07-16T07:12:30.531Z,99.99
2017-07-16T07:13:30.217Z,99.99
2017-07-16T07:14:30.517Z,99.99
2017-07-16T07:15:30.498Z,99.99
2017-07-16T07:16:30.470Z,99.99
2017-07-16T07:17:30.157Z,99.99
2017-07-16T07:18:30.447Z,99.99
2017-07-16T07:19:30.244Z,99.99
2017-07-16T07:20:30.418Z,99.99
2017-07-16T07:21:30.397Z,99.99
2017-07-16T07:22:30.387Z,99.99
2017-07-16T07:23:30.076Z,99.99
2017-07-16T07:24:30.359Z,99.99
2017-07-16T07:25:30.029Z,99.99
2017-07-16T07:26:30.019Z,99.99
2017-07-16T07:27:30.008Z,99.99
2017-07-16T07:28:30.309Z,99.99
2017-07-16T07:29:29.991Z,99.99
2017-07-16T07:30:30.278Z,99.99
2017-07-16T07:31:30.250Z,99.99
2017-07-16T07:32:30.247Z,99.99
2017-07-16T07:33:30.229Z,99.99
2017-07-16T07:34:30.210Z,99.99
2017-07-16T07:35:30.198Z,99.99
2017-07-16T07:36:30.179Z,99.99
2017-07-16T07:37:29.889Z,99.99
2017-07-16T07:38:30.158Z,99.99
2017-07-16T07:39:30.141Z,99.99
2017-07-16T07:40:30.120Z,99.99
2017-07-16T07:41:29.801Z,99.99
2017-07-16T07:42:30.100Z,99.99
2017-07-16T07:43:29.765Z,99.99
2017-07-16T07:44:30.079Z,99.99
2017-07-16T07:45:29.742Z,99.99
2017-07-16T07:46:30.033Z,99.99
2017-07-16T07:47:30.009Z,99.99
2017-07-16T07:48:30.011Z,99.99
2017-07-16T07:49:30.029Z,99.99
2017-07-16T07:50:29.659Z,99.99
2017-07-16T07:51:30.057Z,99.99
2017-07-16T07:52:29.941Z,99.99
2017-07-16T07:53:29.939Z,99.99
2017-07-16T07:54:30.049Z,99.99
2017-07-16T07:55:29.599Z,99.99
2017-07-16T07:56:29.902Z,99.99
2017-07-16T07:57:29.874Z,99.99
2017-07-16T07:58:29.880Z,99.99
2017-07-16T07:59:29.840Z,99.99
2017-07-16T08:00:29.521Z,99.99
2017-07-16T08:01:29.812Z,99.99
2017-07-16T08:02:29.798Z,99.99
2017-07-16T08:03:29.789Z,99.99
2017-07-16T08:04:29.460Z,99.99
2017-07-16T08:05:29.449Z,99.99
2017-07-16T08:06:29.735Z,99.99
2017-07-16T08:07:29.734Z,99.99
2017-07-16T08:08:29.396Z,99.99
2017-07-16T08:09:29.700Z,99.99
2017-07-16T08:10:29.684Z,99.99
2017-07-16T08:11:29.352Z,99.99
2017-07-16T08:12:29.656Z,99.99
2017-07-16T08:13:29.635Z,99.99
2017-07-16T08:14:29.321Z,99.99
2017-07-16T08:15:29.618Z,99.99
2017-07-16T08:16:29.296Z,99.99
2017-07-16T08:17:29.607Z,99.99
2017-07-16T08:18:29.578Z,99.99
2017-07-16T08:19:29.545Z,99.99
2017-07-16T08:20:29.228Z,99.99
2017-07-16T08:21:29.207Z,99.99
2017-07-16T08:22:29.507Z,99.99
2017-07-16T08:23:29.498Z,99.99
2017-07-16T08:24:29.479Z,99.99
2017-07-16T08:25:29.170Z,99.99
2017-07-16T08:26:29.139Z,99.99
2017-07-16T08:27:29.128Z,99.99
2017-07-16T08:28:29.118Z,99.99
2017-07-16T08:29:29.408Z,99.99
2017-07-16T08:30:29.087Z,99.99
2017-07-16T08:31:29.376Z,99.99
2017-07-16T08:32:29.058Z,99.99
2017-07-16T08:33:29.044Z,99.99
2017-07-16T08:34:29.349Z,99.99
2017-07-16T08:35:29.329Z,99.99
2017-07-16T08:36:29.311Z,99.99
2017-07-16T08:37:29.297Z,99.99
2017-07-16T08:38:29.287Z,99.99
2017-07-16T08:39:29.268Z,99.99
2017-07-16T08:40:28.957Z,99.99
2017-07-16T08:41:29.241Z,99.99
2017-07-16T08:42:29.229Z,99.99
2017-07-16T08:43:29.217Z,99.99
2017-07-16T08:44:29.199Z,99.99
2017-07-16T08:45:29.196Z,99.99
2017-07-16T08:46:28.877Z,99.99
2017-07-16T08:47:29.155Z,99.99
2017-07-16T08:48:29.148Z,99.99
2017-07-16T08:49:29.133Z,99.99
2017-07-16T08:50:29.127Z,99.99
2017-07-16T08:51:28.797Z,99.99
2017-07-16T08:52:29.087Z,99.99
2017-07-16T08:53:29.087Z,99.99
2017-07-16T08:54:29.121Z,99.99
2017-07-16T08:55:29.038Z,99.99
2017-07-16T08:56:29.049Z,99.99
2017-07-16T08:57:29.036Z,99.99
2017-07-16T08:58:29.008Z,99.99
2017-07-16T08:59:28.999Z,99.99
2017-07-16T09:00:28.978Z,99.99
2017-07-16T09:01:28.976Z,99.99
2017-07-16T09:02:28.946Z,99.99
2017-07-16T09:03:28.928Z,99.99
2017-07-16T09:04:28.919Z,99.99
2017-07-16T09:05:28.598Z,99.99
2017-07-16T09:06:28.899Z,99.99
2017-07-16T09:07:28.876Z,99.99
2017-07-16T09:08:28.867Z,99.99
2017-07-16T09:09:28.850Z,99.99
2017-07-16T09:10:28.835Z,99.99
2017-07-16T09:11:28.832Z,99.99
2017-07-16T09:12:28.811Z,99.99
2017-07-16T09:13:28.802Z,99.99
2017-07-16T09:14:28.775Z,99.99
2017-07-16T09:15:28.446Z,99.99
2017-07-16T09:16:28.762Z,99.99
2017-07-16T09:17:28.731Z,99.99
2017-07-16T09:18:28.736Z,99.99
2017-07-16T09:19:28.710Z,99.99
2017-07-16T09:20:28.383Z,99.99
2017-07-16T09:21:28.683Z,99.99
2017-07-16T09:22:28.346Z,99.99
2017-07-16T09:23:28.334Z,99.99
2017-07-16T09:24:28.653Z,99.99
2017-07-16T09:25:28.615Z,99.99
2017-07-16T09:26:28.625Z,99.99
2017-07-16T09:27:28.588Z,99.99
2017-07-16T09:28:28.575Z,99.99
2017-07-16T09:29:28.691Z,99.99
2017-07-16T09:30:28.248Z,99.99
2017-07-16T09:31:28.553Z,99.99
2017-07-16T09:32:28.613Z,99.99
2017-07-16T09:33:28.523Z,99.99
2017-07-16T09:34:28.246Z,99.99
2017-07-16T09:35:28.484Z,99.99
2017-07-16T09:36:28.485Z,99.99
2017-07-16T09:37:28.447Z,99.99
2017-07-16T09:38:28.452Z,99.99
2017-07-16T09:39:28.126Z,99.99
2017-07-16T09:40:28.414Z,99.99
2017-07-16T09:41:28.405Z,99.99
2017-07-16T09:42:28.423Z,99.99
2017-07-16T09:43:28.475Z,99.99
2017-07-16T09:44:28.414Z,99.99
2017-07-16T09:45:28.347Z,99.99
2017-07-16T09:46:28.334Z,99.99
2017-07-16T09:47:28.315Z,99.99
2017-07-16T09:48:28.307Z,99.99
2017-07-16T09:49:28.325Z,99.99
2017-07-16T09:50:27.965Z,99.99
2017-07-16T09:51:28.307Z,99.99
2017-07-16T09:52:28.247Z,99.99
2017-07-16T09:53:27.914Z,99.99
2017-07-16T09:54:28.225Z,99.99
2017-07-16T09:55:28.247Z,99.99
2017-07-16T09:56:28.195Z,99.99
2017-07-16T09:57:27.856Z,99.99
2017-07-16T09:58:28.156Z,99.99
2017-07-16T09:59:28.173Z,99.99
2017-07-16T10:00:27.822Z,99.99
2017-07-16T10:01:27.813Z,99.99
2017-07-16T10:02:27.798Z,99.99
2017-07-16T10:03:28.116Z,99.99
2017-07-16T10:04:28.078Z,99.99
2017-07-16T10:05:28.065Z,99.99
2017-07-16T10:06:28.055Z,99.99
2017-07-16T10:07:27.712Z,99.99
2017-07-16T10:08:28.020Z,99.99
2017-07-16T10:09:28.014Z,99.99
2017-07-16T10:10:27.995Z,99.99
2017-07-16T10:11:27.665Z,99.99
2017-07-16T10:12:27.657Z,99.99
2017-07-16T10:13:27.959Z,99.99
2017-07-16T10:14:27.648Z,99.99
2017-07-16T10:15:27.934Z,99.99
2017-07-16T10:16:27.931Z,99.99
2017-07-16T10:17:27.584Z,99.99
2017-07-16T10:18:27.575Z,99.99
2017-07-16T10:19:27.894Z,99.99
2017-07-16T10:20:27.917Z,99.99
2017-07-16T10:21:27.540Z,99.99
2017-07-16T10:22:27.829Z,99.99
2017-07-16T10:23:27.833Z,99.99
2017-07-16T10:24:27.816Z,99.99
2017-07-16T10:25:27.807Z,99.99
2017-07-16T10:26:27.802Z,99.99
2017-07-16T10:27:27.790Z,99.99
2017-07-16T10:28:27.772Z,99.99
2017-07-16T10:29:27.456Z,99.99
2017-07-16T10:30:27.743Z,99.94
2017-07-16T10:31:27.740Z,99.99
2017-07-16T10:32:27.737Z,99.99
2017-07-16T10:33:27.715Z,99.99
2017-07-16T10:34:27.701Z,99.99
2017-07-16T10:35:27.681Z,99.99
2017-07-16T10:36:27.371Z,99.99
2017-07-16T10:37:27.673Z,99.99
2017-07-16T10:38:27.656Z,99.99
2017-07-16T10:39:27.640Z,99.99
2017-07-16T10:40:27.640Z,99.99
2017-07-16T10:41:27.316Z,99.99
2017-07-16T10:42:27.607Z,99.99
2017-07-16T10:43:27.596Z,99.99
2017-07-16T10:44:27.590Z,99.99
2017-07-16T10:45:27.585Z,99.99
2017-07-16T10:46:27.558Z,99.99
2017-07-16T10:47:27.236Z,99.99
2017-07-16T10:48:27.216Z,99.99
2017-07-16T10:49:27.205Z,99.99
2017-07-16T10:50:27.521Z,99.99
2017-07-16T10:51:27.507Z,99.99
2017-07-16T10:52:27.517Z,99.99
2017-07-16T10:53:27.166Z,99.99
2017-07-16T10:54:27.145Z,99.99
2017-07-16T10:55:27.452Z,99.99
2017-07-16T10:56:27.452Z,99.99
2017-07-16T10:57:27.425Z,99.99
2017-07-16T10:58:27.423Z,99.99
2017-07-16T10:59:27.088Z,99.99
2017-07-16T11:00:27.387Z,99.99
2017-07-16T11:01:27.388Z,99.99
2017-07-16T11:02:27.052Z,99.99
2017-07-16T11:03:27.358Z,99.99
2017-07-16T11:04:27.351Z,99.99
2017-07-16T11:05:27.326Z,99.99
2017-07-16T11:06:27.313Z,99.99
2017-07-16T11:07:27.323Z,99.99
2017-07-16T11:08:27.287Z,99.99
2017-07-16T11:09:27.433Z,99.99
2017-07-16T11:10:27.287Z,99.99
2017-07-16T11:11:27.271Z,99.99
2017-07-16T11:12:27.264Z,99.99
2017-07-16T11:13:27.235Z,99.99
2017-07-16T11:14:27.236Z,99.99
2017-07-16T11:15:27.216Z,99.99
2017-07-16T11:16:27.201Z,99.99
2017-07-16T11:17:27.202Z,99.99
2017-07-16T11:18:26.863Z,99.99
2017-07-16T11:19:26.855Z,99.99
2017-07-16T11:20:26.835Z,99.99
2017-07-16T11:21:26.827Z,99.99
2017-07-16T11:22:26.812Z,99.99
2017-07-16T11:23:27.125Z,99.99
2017-07-16T11:24:27.105Z,99.99
2017-07-16T11:25:27.094Z,99.99
2017-07-16T11:26:27.085Z,99.74
2017-07-16T11:27:27.076Z,99.99
2017-07-16T11:28:27.076Z,99.99
2017-07-16T11:29:27.059Z,99.99
2017-07-16T11:30:27.037Z,99.99
2017-07-16T11:31:27.028Z,99.99
2017-07-16T11:32:27.003Z,99.99
2017-07-16T11:33:26.681Z,99.99
2017-07-16T11:34:27.022Z,99.99
2017-07-16T11:35:26.983Z,99.99
2017-07-16T11:36:26.972Z,99.99
2017-07-16T11:37:26.951Z,99.99
2017-07-16T11:38:26.944Z,99.99
2017-07-16T11:39:26.617Z,99.99
2017-07-16T11:40:26.919Z,99.99
2017-07-16T11:41:26.897Z,99.99
2017-07-16T11:42:26.586Z,99.99
2017-07-16T11:43:26.892Z,99.99
2017-07-16T11:44:26.556Z,99.99
2017-07-16T11:45:26.862Z,99.99
2017-07-16T11:46:26.847Z,99.99
2017-07-16T11:47:26.825Z,99.99
2017-07-16T11:48:26.843Z,99.99
2017-07-16T11:49:26.803Z,99.99
2017-07-16T11:50:26.835Z,99.99
2017-07-16T11:51:26.775Z,99.99
2017-07-16T11:52:26.788Z,99.99
2017-07-16T11:53:26.774Z,99.99
2017-07-16T11:54:26.542Z,99.99
2017-07-16T11:55:26.743Z,99.99
2017-07-16T11:56:26.813Z,99.99
2017-07-16T11:57:26.798Z,99.99
2017-07-16T11:58:26.719Z,99.99
2017-07-16T11:59:26.681Z,99.99
2017-07-16T12:00:26.734Z,99.99
2017-07-16T12:01:26.669Z,99.99
2017-07-16T12:02:26.370Z,99.99
2017-07-16T12:03:26.713Z,99.99
2017-07-16T12:04:26.683Z,99.99
2017-07-16T12:05:26.626Z,99.99
2017-07-16T12:06:26.663Z,99.99
2017-07-16T12:07:26.594Z,99.99
2017-07-16T12:08:26.585Z,99.99
2017-07-16T12:09:26.576Z,99.99
2017-07-16T12:10:26.566Z,99.99
2017-07-16T12:11:26.543Z,99.99
2017-07-16T12:12:26.534Z,99.99
2017-07-16T12:13:26.517Z,99.99
2017-07-16T12:14:26.495Z,99.99
2017-07-16T12:15:26.506Z,99.99
2017-07-16T12:16:26.487Z,99.99
2017-07-16T12:17:26.475Z,99.99
2017-07-16T12:18:26.469Z,99.99
2017-07-16T12:19:26.456Z,99.99
2017-07-16T12:20:26.119Z,99.99
2017-07-16T12:21:26.428Z,99.99
2017-07-16T12:22:26.406Z,99.99
2017-07-16T12:23:26.388Z,99.99
2017-07-16T12:24:26.386Z,99.99
2017-07-16T12:25:26.380Z,99.99
2017-07-16T12:26:26.357Z,99.99
2017-07-16T12:27:26.393Z,99.99
2017-07-16T12:28:26.341Z,99.99
2017-07-16T12:29:26.334Z,99.99
2017-07-16T12:30:26.317Z,99.99
2017-07-16T12:31:26.302Z,99.99
2017-07-16T12:32:26.300Z,99.99
2017-07-16T12:33:26.287Z,99.99
2017-07-16T12:34:25.946Z,99.99
2017-07-16T12:35:26.245Z,99.99
2017-07-16T12:36:25.920Z,99.99
2017-07-16T12:37:25.915Z,99.99
2017-07-16T12:38:26.215Z,99.99
2017-07-16T12:39:26.216Z,99.99
2017-07-16T12:40:26.204Z,99.99
2017-07-16T12:41:25.884Z,99.99
2017-07-16T12:42:25.852Z,99.99
2017-07-16T12:43:25.845Z,99.99
2017-07-16T12:44:26.151Z,99.99
2017-07-16T12:45:26.127Z,99.99
2017-07-16T12:46:26.126Z,99.99
2017-07-16T12:47:26.124Z,99.99
2017-07-16T12:48:26.096Z,99.99
2017-07-16T12:49:26.098Z,99.99
2017-07-16T12:50:26.075Z,99.99
2017-07-16T12:51:26.078Z,99.99
2017-07-16T12:52:26.073Z,99.99
2017-07-16T12:53:26.062Z,99.99